Time;durP1;ratioP1;P1;durP2;ratioP2;P2;SDS_P1;SDS_P2;PMS_P1;PMS_P2;Temp;Humidity;BMP_temperature;BMP_pressure;BME280_temperature;BME280_humidity;BME280_pressure;Samples;Min_cycle;Max_cycle;Signal;HPM_P1;HPM_P2
2023/08/16 00:01:16;;;;;;;9.15;7.80;;;;;;;21.81;91.52;64259.31;5067338;28;20200;-81
2023/08/16 00:03:44;;;;;;;8.40;7.60;;;;;;;21.88;90.81;64264.03;5076533;28;20264;-81
2023/08/16 00:06:12;;;;;;;9.85;7.90;;;;;;;21.91;90.13;64265.09;5066755;28;20216;-79
2023/08/16 00:08:40;;;;;;;8.38;7.68;;;;;;;21.88;89.85;64266.63;5072611;28;20205;-79
2023/08/16 00:11:09;;;;;;;8.77;8.05;;;;;;;21.81;91.70;64257.25;5071420;28;20219;-80
2023/08/16 00:13:37;;;;;;;8.52;7.72;;;;;;;21.70;92.42;64246.25;5069198;28;20224;-80
2023/08/16 00:16:06;;;;;;;9.85;8.13;;;;;;;21.65;92.43;64238.44;5071199;28;20224;-80
2023/08/16 00:18:33;;;;;;;10.98;7.10;;;;;;;21.67;93.36;64243.13;5065160;28;20419;-79
2023/08/16 00:21:00;;;;;;;9.05;8.25;;;;;;;21.60;93.70;64235.81;5067657;28;20204;-80
2023/08/16 00:23:28;;;;;;;8.20;7.53;;;;;;;21.52;94.15;64230.03;5058348;28;20455;-79
2023/08/16 00:25:56;;;;;;;9.13;8.32;;;;;;;21.46;94.57;64218.59;5065113;28;20196;-79
2023/08/16 00:28:23;;;;;;;8.90;8.00;;;;;;;21.39;95.29;64215.94;5065913;28;20225;-79
2023/08/16 00:30:53;;;;;;;8.82;7.95;;;;;;;21.33;96.19;64207.09;5066568;28;20196;-79
2023/08/16 00:33:22;;;;;;;8.65;7.85;;;;;;;21.18;97.77;64197.13;5066625;28;20288;-81
2023/08/16 00:35:52;;;;;;;10.82;8.27;;;;;;;21.10;98.51;64183.59;5067605;28;20244;-79
2023/08/16 00:38:19;;;;;;;12.73;8.18;;;;;;;21.04;98.91;64176.78;5068830;28;20229;-82
2023/08/16 00:40:48;;;;;;;9.88;9.05;;;;;;;20.83;100.00;64152.78;5065774;28;20201;-79
2023/08/16 00:43:17;;;;;;;12.65;9.93;;;;;;;20.66;100.00;64140.22;5065017;28;20221;-79
2023/08/16 00:45:45;;;;;;;12.70;11.35;;;;;;;20.67;100.00;64144.38;5069391;28;20207;-79
2023/08/16 00:48:15;;;;;;;13.90;12.27;;;;;;;20.58;100.00;64124.09;5069697;28;20292;-80
2023/08/16 00:50:43;;;;;;;13.32;11.70;;;;;;;20.49;100.00;64122.47;5072780;28;20211;-80
2023/08/16 00:53:12;;;;;;;12.85;11.27;;;;;;;20.45;100.00;64118.81;5080998;28;20226;-81
2023/08/16 00:55:39;;;;;;;12.82;11.02;;;;;;;20.37;100.00;64107.34;5064947;28;20288;-78
2023/08/16 00:58:06;;;;;;;12.85;11.05;;;;;;;20.35;100.00;64105.25;5066271;28;20311;-80
2023/08/16 01:00:34;;;;;;;11.60;10.52;;;;;;;20.10;100.00;64082.28;5066712;28;20425;-79
2023/08/16 01:03:01;;;;;;;11.75;10.60;;;;;;;20.03;100.00;64072.38;5080659;28;20288;-79
2023/08/16 01:05:30;;;;;;;11.63;10.43;;;;;;;20.01;100.00;64072.34;5082243;28;20199;-80
2023/08/16 01:07:59;;;;;;;12.07;9.98;;;;;;;20.04;100.00;64070.84;5081865;28;20192;-80
2023/08/16 01:10:34;;;;;;;11.98;9.57;;;;;;;19.99;100.00;64065.09;5066399;28;20209;-79
2023/08/16 01:13:08;;;;;;;10.50;9.43;;;;;;;19.97;100.00;64065.59;5063646;28;20407;-80
2023/08/16 01:15:41;;;;;;;10.82;9.30;;;;;;;19.89;100.00;64059.84;5068039;28;20219;-80
2023/08/16 01:18:10;;;;;;;13.38;9.45;;;;;;;19.91;100.00;64062.44;5078169;28;20231;-80
2023/08/16 01:20:38;;;;;;;12.23;10.18;;;;;;;19.92;100.00;64066.06;5066684;28;20208;-79
2023/08/16 01:23:08;;;;;;;10.80;9.77;;;;;;;19.90;100.00;64061.41;5066925;28;20291;-80
2023/08/16 01:25:44;;;;;;;10.18;9.20;;;;;;;19.84;100.00;64052.03;5075897;28;20427;-80
2023/08/16 01:28:14;;;;;;;11.02;9.15;;;;;;;19.83;100.00;64056.16;5077990;28;20215;-80
2023/08/16 01:30:45;;;;;;;10.20;9.25;;;;;;;19.85;100.00;64056.19;5072681;28;20193;-78
2023/08/16 01:33:13;;;;;;;9.40;8.60;;;;;;;19.82;100.00;64049.94;5073341;28;20243;-80
2023/08/16 01:35:42;;;;;;;10.57;9.27;;;;;;;19.92;100.00;64063.47;5072507;28;20228;-81
2023/08/16 01:38:13;;;;;;;10.55;9.32;;;;;;;19.89;100.00;64054.66;5066161;28;20262;-78
2023/08/16 01:40:46;;;;;;;11.63;8.95;;;;;;;19.93;100.00;64058.84;5065557;28;20224;-80
2023/08/16 01:43:18;;;;;;;10.25;9.25;;;;;;;19.70;100.00;64037.94;5078210;28;20227;-81
2023/08/16 01:45:46;;;;;;;10.20;9.20;;;;;;;19.93;100.00;64061.94;5072584;28;20256;-79
2023/08/16 01:48:15;;;;;;;10.32;9.43;;;;;;;19.77;100.00;64039.56;5066687;28;20220;-79
2023/08/16 01:50:43;;;;;;;10.38;9.43;;;;;;;19.76;100.00;64044.19;5063162;28;20227;-80
2023/08/16 01:53:11;;;;;;;10.07;9.25;;;;;;;19.75;100.00;64042.63;5066462;28;20228;-80
2023/08/16 01:55:39;;;;;;;12.07;10.20;;;;;;;19.69;100.00;64036.41;5066296;28;20537;-80
2023/08/16 01:58:07;;;;;;;11.27;10.27;;;;;;;19.68;100.00;64032.75;5067948;28;20231;-80
2023/08/16 02:00:36;;;;;;;11.40;10.30;;;;;;;19.68;100.00;64030.16;5069022;28;20298;-78
2023/08/16 02:03:03;;;;;;;12.27;10.68;;;;;;;19.68;100.00;64035.88;5074541;28;20212;-79
2023/08/16 02:05:30;;;;;;;12.77;11.48;;;;;;;19.68;100.00;64035.34;5061334;28;20390;-79
2023/08/16 02:07:57;;;;;;;13.98;10.23;;;;;;;19.62;100.00;64029.09;5059897;28;20193;-79
2023/08/16 02:10:24;;;;;;;11.65;9.63;;;;;;;19.49;100.00;64013.47;5063035;28;20207;-80
2023/08/16 02:12:51;;;;;;;10.60;9.50;;;;;;;19.48;100.00;64012.44;5076765;28;20200;-78
2023/08/16 02:15:18;;;;;;;10.98;9.85;;;;;;;19.48;100.00;64017.59;5071564;28;20292;-80
2023/08/16 02:17:47;;;;;;;12.38;9.63;;;;;;;19.41;100.00;64003.06;5070828;28;20193;-79
2023/08/16 02:20:15;;;;;;;10.25;9.23;;;;;;;19.42;100.00;64009.28;5067969;28;20217;-80
2023/08/16 02:22:42;;;;;;;11.95;9.90;;;;;;;19.37;100.00;64001.47;5064177;28;20227;-78
2023/08/16 02:25:11;;;;;;;11.10;10.07;;;;;;;19.35;100.00;64001.44;5065643;28;20231;-79
2023/08/16 02:27:38;;;;;;;11.18;10.07;;;;;;;19.31;100.00;64000.38;5064481;28;20251;-78
2023/08/16 02:30:06;;;;;;;10.75;9.57;;;;;;;19.31;100.00;63992.63;5057465;28;20305;-80
2023/08/16 02:32:33;;;;;;;12.27;9.93;;;;;;;19.16;100.00;63976.97;5058703;28;20204;-80
2023/08/16 02:35:03;;;;;;;11.98;10.32;;;;;;;19.23;100.00;63986.31;5062672;28;20232;-77
2023/08/16 02:37:33;;;;;;;12.90;10.38;;;;;;;19.14;100.00;63982.09;5057158;28;20208;-78
2023/08/16 02:40:00;;;;;;;11.95;10.00;;;;;;;19.20;100.00;63985.78;5058951;28;20221;-79
2023/08/16 02:42:29;;;;;;;11.88;10.68;;;;;;;18.93;100.00;63957.66;5062908;28;20268;-79
2023/08/16 02:44:56;;;;;;;10.95;10.05;;;;;;;19.17;100.00;63980.59;5071455;28;20463;-80
2023/08/16 02:47:24;;;;;;;10.77;9.68;;;;;;;19.14;100.00;63980.03;5079377;28;20242;-80
2023/08/16 02:49:51;;;;;;;10.95;9.95;;;;;;;19.10;100.00;63970.19;5069569;28;20220;-79
2023/08/16 02:52:19;;;;;;;10.95;9.90;;;;;;;19.16;100.00;63982.13;5071934;28;20268;-80
2023/08/16 02:54:46;;;;;;;11.38;10.18;;;;;;;19.11;100.00;63971.22;5071609;28;20227;-80
2023/08/16 02:57:15;;;;;;;12.13;10.70;;;;;;;19.14;100.00;63982.63;5069858;28;20201;-80
2023/08/16 02:59:46;;;;;;;11.63;9.93;;;;;;;19.14;100.00;63982.63;5072124;28;20251;-80
2023/08/16 03:02:13;;;;;;;11.95;10.85;;;;;;;19.07;100.00;63972.75;5086308;28;20284;-78
2023/08/16 03:04:40;;;;;;;13.20;9.88;;;;;;;19.10;100.00;63977.94;5068324;28;20382;-80
2023/08/16 03:07:07;;;;;;;10.98;9.82;;;;;;;19.09;100.00;63976.88;5069753;28;20200;-80
2023/08/16 03:09:37;;;;;;;11.32;10.15;;;;;;;19.06;100.00;63969.13;5076126;28;20217;-79
2023/08/16 03:12:05;;;;;;;14.90;11.57;;;;;;;19.01;100.00;63966.50;5083843;28;20200;-78
2023/08/16 03:14:33;;;;;;;13.25;11.68;;;;;;;18.94;100.00;63956.63;5069002;28;20227;-80
2023/08/16 03:17:01;;;;;;;11.85;10.65;;;;;;;18.96;100.00;63961.28;5068631;28;20255;-78
2023/08/16 03:19:28;;;;;;;12.52;11.25;;;;;;;18.96;100.00;63960.75;5065564;28;20311;-79
2023/08/16 03:21:56;;;;;;;11.65;10.63;;;;;;;18.86;100.00;63947.75;5072733;28;20197;-79
2023/08/16 03:24:26;;;;;;;15.35;11.70;;;;;;;18.88;100.00;63955.53;5075061;28;20212;-80
2023/08/16 03:26:55;;;;;;;11.90;10.70;;;;;;;18.84;100.00;63943.09;5070107;28;20269;-78
2023/08/16 03:29:22;;;;;;;11.90;10.75;;;;;;;18.82;100.00;63944.13;5071026;28;20238;-79
2023/08/16 03:31:50;;;;;;;12.48;10.88;;;;;;;18.77;100.00;63943.53;5066882;28;20242;-79
2023/08/16 03:34:17;;;;;;;13.07;11.43;;;;;;;18.76;100.00;63937.84;5066635;28;20248;-82
2023/08/16 03:36:44;;;;;;;14.43;11.52;;;;;;;18.74;100.00;63938.34;5067397;28;20604;-80
2023/08/16 03:39:12;;;;;;;15.27;11.77;;;;;;;18.77;100.00;63941.47;5066851;28;20220;-81
2023/08/16 03:41:40;;;;;;;13.38;11.55;;;;;;;18.77;100.00;63941.47;5067997;28;20189;-79
2023/08/16 03:44:08;;;;;;;13.60;11.48;;;;;;;18.76;100.00;63937.34;5065859;28;20224;-79
2023/08/16 03:46:35;;;;;;;13.90;11.80;;;;;;;18.71;100.00;63932.63;5065063;28;20196;-80
2023/08/16 03:49:03;;;;;;;12.45;11.25;;;;;;;18.71;100.00;63930.06;5064678;28;20224;-78
2023/08/16 03:51:30;;;;;;;13.85;12.50;;;;;;;18.77;100.00;63936.31;5067712;28;20199;-80
2023/08/16 03:53:58;;;;;;;13.82;12.05;;;;;;;18.70;100.00;63933.66;5068367;28;20239;-80
2023/08/16 03:56:25;;;;;;;15.93;13.25;;;;;;;18.82;100.00;63941.53;5068983;28;20599;-80
2023/08/16 03:58:52;;;;;;;16.80;13.90;;;;;;;18.81;100.00;63943.06;5071543;28;20281;-79
2023/08/16 04:01:22;;;;;;;13.80;12.40;;;;;;;18.91;100.00;63956.09;5060987;28;20254;-81
2023/08/16 04:03:49;;;;;;;15.57;14.00;;;;;;;18.90;100.00;63949.88;5063235;28;20223;-80
2023/08/16 04:06:20;;;;;;;13.35;12.05;;;;;;;18.88;100.00;63955.00;5064608;28;20209;-80
2023/08/16 04:08:47;;;;;;;13.98;12.63;;;;;;;18.98;100.00;63965.44;5067729;28;20599;-80
2023/08/16 04:11:15;;;;;;;15.90;13.73;;;;;;;19.02;100.00;63970.13;5066907;28;20201;-79
2023/08/16 04:13:45;;;;;;;14.18;12.68;;;;;;;19.08;100.00;63973.81;5072133;28;20227;-80
2023/08/16 04:16:12;;;;;;;14.70;13.23;;;;;;;19.10;100.00;63973.28;5065650;28;20541;-80
2023/08/16 04:18:42;;;;;;;18.75;13.68;;;;;;;19.07;100.00;63967.59;5065937;28;20461;-82
2023/08/16 04:21:09;;;;;;;14.55;12.98;;;;;;;19.18;100.00;63978.53;5067006;28;20197;-79
2023/08/16 04:23:37;;;;;;;15.25;12.57;;;;;;;19.23;100.00;63986.84;5064171;28;20280;-80
2023/08/16 04:26:05;;;;;;;14.20;12.80;;;;;;;19.25;100.00;63991.00;5057814;28;20204;-79
2023/08/16 04:28:31;;;;;;;13.80;12.40;;;;;;;19.28;100.00;63992.06;5072376;28;20293;-79
2023/08/16 04:31:00;;;;;;;14.20;12.13;;;;;;;19.34;100.00;64003.53;5080820;28;20280;-79
2023/08/16 04:33:27;;;;;;;13.95;12.57;;;;;;;19.39;100.00;64000.97;5069875;28;20225;-79
2023/08/16 04:35:56;;;;;;;18.55;12.65;;;;;;;19.49;100.00;64016.56;5056050;28;20557;-79
2023/08/16 04:38:23;;;;;;;16.45;12.98;;;;;;;19.61;100.00;64030.63;5071658;28;20242;-79
2023/08/16 04:40:52;;;;;;;14.48;12.32;;;;;;;19.67;100.00;64034.31;5072925;28;20200;-82
2023/08/16 04:43:19;;;;;;;13.38;11.98;;;;;;;19.75;100.00;64040.59;5070174;28;20271;-78
2023/08/16 04:45:47;;;;;;;13.52;12.23;;;;;;;19.85;100.00;64051.00;5082543;28;20264;-79
2023/08/16 04:48:14;;;;;;;14.95;12.30;;;;;;;19.92;100.00;64063.47;5065084;28;20220;-79
2023/08/16 04:50:42;;;;;;;11.50;10.20;;;;;;;20.02;100.00;64068.25;5060520;28;20518;-80
2023/08/16 04:53:11;;;;;;;12.48;10.45;;;;;;;20.02;100.00;64073.41;5068048;28;20239;-79
2023/08/16 04:55:38;;;;;;;14.02;12.32;;;;;;;20.18;100.00;64085.47;5068628;28;20239;-81
2023/08/16 04:58:05;;;;;;;12.98;11.70;;;;;;;20.23;100.00;64095.84;5066677;28;20296;-80
2023/08/16 05:00:33;;;;;;;13.25;11.93;;;;;;;20.35;100.00;64102.69;5067088;28;20219;-80
2023/08/16 05:03:01;;;;;;;14.45;11.88;;;;;;;20.41;100.00;64111.53;5076257;28;20221;-79
2023/08/16 05:05:28;;;;;;;14.13;12.13;;;;;;;20.56;100.00;64125.13;5069299;28;20209;-80
2023/08/16 05:07:55;;;;;;;12.63;11.32;;;;;;;20.63;100.00;64132.44;5066777;28;20398;-79
2023/08/16 05:10:24;;;;;;;15.85;11.43;;;;;;;20.75;100.00;64147.03;5056384;28;20214;-79
2023/08/16 05:12:51;;;;;;;13.57;11.57;;;;;;;20.92;100.00;64169.94;5067972;28;20494;-80
2023/08/16 05:15:18;;;;;;;12.32;11.13;;;;;;;20.98;100.00;64165.88;5065007;28;20207;-80
2023/08/16 05:17:45;;;;;;;12.93;11.63;;;;;;;21.26;100.00;64197.69;5066993;28;20236;-79
2023/08/16 05:20:12;;;;;;;12.90;11.60;;;;;;;21.34;100.00;64208.13;5067316;28;20269;-79
2023/08/16 05:22:41;;;;;;;13.02;11.68;;;;;;;20.94;100.00;64163.75;5066895;28;20197;-79
2023/08/16 05:25:09;;;;;;;13.90;12.02;;;;;;;20.64;100.00;64138.66;5067404;28;20193;-80
2023/08/16 05:27:37;;;;;;;18.83;13.23;;;;;;;20.54;100.00;64125.09;5067420;28;20212;-80
2023/08/16 05:30:06;;;;;;;13.98;12.25;;;;;;;20.57;100.00;64131.34;5071626;28;20196;-81
2023/08/16 05:32:33;;;;;;;16.30;12.82;;;;;;;20.68;100.00;64140.25;5064959;28;20430;-80
2023/08/16 05:35:00;;;;;;;14.68;12.13;;;;;;;20.66;100.00;64140.22;5069480;28;20511;-80
2023/08/16 05:37:27;;;;;;;16.25;12.27;;;;;;;20.80;100.00;64149.13;5070116;28;20233;-80
2023/08/16 05:39:54;;;;;;;13.55;12.35;;;;;;;20.75;100.00;64149.09;5071549;28;20229;-79
2023/08/16 05:42:22;;;;;;;14.45;12.38;;;;;;;20.78;100.00;64152.75;5076233;28;20200;-80
2023/08/16 05:44:50;;;;;;;17.42;12.63;;;;;;;20.85;100.00;64154.34;5071363;28;20220;-79
2023/08/16 05:47:18;;;;;;;13.35;11.95;;;;;;;20.95;100.00;64162.72;5069885;28;20212;-82
2023/08/16 05:49:45;;;;;;;14.80;12.43;;;;;;;20.99;100.00;64174.16;5069318;28;20220;-81
2023/08/16 05:52:12;;;;;;;11.57;10.40;;;;;;;20.90;100.00;64157.50;5071288;28;20200;-80
2023/08/16 05:54:39;;;;;;;13.98;10.32;;;;;;;21.01;100.00;64169.00;5067865;28;20213;-79
2023/08/16 05:57:06;;;;;;;17.92;11.25;;;;;;;21.23;100.00;64197.16;5062941;28;20459;-79
2023/08/16 05:59:34;;;;;;;12.18;10.25;;;;;;;21.36;100.00;64210.75;5077313;28;20236;-79
2023/08/16 06:02:02;;;;;;;10.60;9.60;;;;;;;21.59;99.13;64236.81;5075730;28;20201;-80
2023/08/16 06:04:30;;;;;;;15.32;9.85;;;;;;;21.77;97.08;64253.06;5084102;28;20208;-79
2023/08/16 06:06:57;;;;;;;14.02;9.20;;;;;;;22.00;95.48;64281.78;5069882;28;20220;-80
2023/08/16 06:09:24;;;;;;;11.02;9.95;;;;;;;22.00;92.64;64276.59;5067440;28;20232;-79
2023/08/16 06:11:51;;;;;;;11.18;8.85;;;;;;;22.01;95.19;64275.56;5068784;28;20197;-81
2023/08/16 06:14:18;;;;;;;9.65;8.75;;;;;;;22.26;93.09;64303.75;5065105;28;20295;-81
2023/08/16 06:16:46;;;;;;;9.85;9.00;;;;;;;22.34;90.93;64304.84;5086353;28;20232;-80
2023/08/16 06:19:16;;;;;;;11.38;8.98;;;;;;;22.55;88.40;64336.69;5092128;28;20226;-79
2023/08/16 06:21:43;;;;;;;9.85;9.05;;;;;;;22.28;87.72;64308.44;5072939;28;20228;-80
2023/08/16 06:24:11;;;;;;;11.98;9.52;;;;;;;22.11;90.67;64285.47;5069281;28;20221;-78
2023/08/16 06:26:39;;;;;;;9.60;8.57;;;;;;;22.22;89.84;64300.09;5064830;28;20197;-77
2023/08/16 06:29:06;;;;;;;10.57;9.48;;;;;;;22.09;91.15;64289.09;5071011;28;20229;-79
2023/08/16 06:31:34;;;;;;;9.88;8.90;;;;;;;21.88;91.98;64264.56;5069356;28;20223;-78
2023/08/16 06:34:02;;;;;;;9.63;8.65;;;;;;;21.95;92.45;64266.69;5071759;28;20293;-78
2023/08/16 06:36:30;;;;;;;12.35;9.10;;;;;;;21.95;92.97;64274.47;5070002;28;20230;-79
2023/08/16 06:38:58;;;;;;;11.35;9.77;;;;;;;21.77;94.33;64253.06;5070517;28;20221;-78
2023/08/16 06:41:26;;;;;;;10.38;9.38;;;;;;;21.82;93.18;64255.69;5074161;28;20534;-80
2023/08/16 06:43:53;;;;;;;9.10;8.25;;;;;;;22.39;90.05;64319.94;5071330;28;20217;-79
2023/08/16 06:46:21;;;;;;;8.93;8.13;;;;;;;21.99;89.67;64273.47;5064477;28;20427;-80
2023/08/16 06:48:49;;;;;;;9.88;8.90;;;;;;;21.96;90.20;64267.22;5078817;28;20226;-80
2023/08/16 06:51:17;;;;;;;10.73;8.52;;;;;;;22.43;89.25;64318.94;5071595;28;20200;-80
2023/08/16 06:53:46;;;;;;;9.25;8.40;;;;;;;22.66;88.38;64345.59;5071226;28;20541;-81
2023/08/16 06:56:13;;;;;;;9.80;8.00;;;;;;;23.12;85.49;64396.31;5059501;28;20239;-83
2023/08/16 06:58:41;;;;;;;9.15;8.50;;;;;;;23.08;85.49;64386.38;5072310;28;20220;-80
2023/08/16 07:01:11;;;;;;;10.15;8.68;;;;;;;23.26;83.53;64410.94;5071664;28;20208;-83
2023/08/16 07:03:38;;;;;;;9.70;8.63;;;;;;;23.51;81.25;64431.38;5081849;28;20220;-81
2023/08/16 07:06:05;;;;;;;12.93;8.45;;;;;;;23.26;81.92;64408.34;5071306;28;20266;-80
2023/08/16 07:08:34;;;;;;;10.00;9.20;;;;;;;23.03;84.43;64386.88;5068133;28;20260;-79
2023/08/16 07:11:03;;;;;;;9.50;8.73;;;;;;;23.14;83.70;64397.88;5068438;28;20228;-79
2023/08/16 07:13:31;;;;;;;9.55;8.50;;;;;;;23.29;83.60;64411.50;5072670;28;20286;-81
2023/08/16 07:15:58;;;;;;;9.73;8.45;;;;;;;23.52;84.54;64432.44;5070206;28;20201;-79
2023/08/16 07:18:25;;;;;;;9.88;7.93;;;;;;;23.74;78.91;64453.38;5071363;28;20223;-80
2023/08/16 07:20:52;;;;;;;11.70;8.07;;;;;;;23.86;79.15;64473.22;5080300;28;20211;-78
2023/08/16 07:23:19;;;;;;;12.98;8.48;;;;;;;23.64;78.41;64448.09;5070485;28;20230;-81
2023/08/16 07:25:46;;;;;;;8.32;7.63;;;;;;;23.79;76.96;64466.41;5069858;28;20248;-79
2023/08/16 07:28:16;;;;;;;9.68;8.45;;;;;;;23.69;78.09;64447.63;5080185;28;20229;-79
2023/08/16 07:30:44;;;;;;;12.23;7.60;;;;;;;24.02;76.41;64487.91;5065196;28;20198;-80
2023/08/16 07:33:11;;;;;;;7.65;6.93;;;;;;;24.23;71.47;64504.13;5061551;28;20234;-80
2023/08/16 07:35:38;;;;;;;8.60;7.20;;;;;;;24.40;73.86;64524.53;5067524;28;20196;-80
2023/08/16 07:38:05;;;;;;;9.43;7.70;;;;;;;24.40;71.20;64526.63;5072383;28;20255;-82
2023/08/16 07:40:33;;;;;;;8.00;7.18;;;;;;;24.23;73.31;64511.94;5070737;28;20448;-82
2023/08/16 07:43:00;;;;;;;8.50;7.53;;;;;;;24.22;73.79;64507.78;5070286;28;20459;-80
2023/08/16 07:45:28;;;;;;;8.38;7.68;;;;;;;24.23;72.20;64511.44;5073520;28;20201;-79
2023/08/16 07:47:56;;;;;;;8.23;7.43;;;;;;;24.48;71.03;64540.22;5072244;28;20381;-83
2023/08/16 07:50:23;;;;;;;8.45;7.63;;;;;;;24.60;69.50;64547.56;5080963;28;20391;-80
2023/08/16 07:52:50;;;;;;;14.13;8.30;;;;;;;24.58;72.18;64548.59;5065380;28;20264;-80
2023/08/16 07:55:18;;;;;;;11.27;7.53;;;;;;;24.77;68.41;64568.53;5056083;28;20197;-82
2023/08/16 07:57:45;;;;;;;12.52;7.32;;;;;;;24.87;66.79;64575.84;5075764;28;20231;-80
2023/08/16 08:00:15;;;;;;;11.10;8.05;;;;;;;25.06;67.95;64596.28;5061710;28;20247;-80
2023/08/16 08:02:44;;;;;;;8.85;7.78;;;;;;;24.94;67.35;64586.31;5072211;28;20200;-80
2023/08/16 08:05:11;;;;;;;11.02;8.63;;;;;;;25.11;66.07;64595.78;5077972;28;20219;-81
2023/08/16 08:07:38;;;;;;;7.85;7.20;;;;;;;25.35;66.71;64625.63;5078966;28;20271;-81
2023/08/16 08:10:06;;;;;;;9.40;7.40;;;;;;;25.57;64.58;64649.22;5069160;28;20197;-79
2023/08/16 08:12:33;;;;;;;7.30;6.80;;;;;;;25.59;64.83;64650.78;5083605;28;20200;-80
2023/08/16 08:15:01;;;;;;;12.93;7.75;;;;;;;25.77;61.38;64670.19;5074985;28;20277;-80
2023/08/16 08:17:28;;;;;;;7.93;6.55;;;;;;;25.99;61.24;64690.09;5069079;28;20243;-81
2023/08/16 08:19:56;;;;;;;7.47;6.60;;;;;;;26.08;60.22;64699.53;5061892;28;20248;-80
2023/08/16 08:22:23;;;;;;;7.30;6.72;;;;;;;26.05;58.57;64696.41;5066691;28;20200;-79
2023/08/16 08:24:51;;;;;;;8.38;7.53;;;;;;;26.14;58.65;64711.06;5075370;28;20531;-80
2023/08/16 08:27:18;;;;;;;8.15;7.35;;;;;;;26.07;59.37;64704.25;5069083;28;20208;-82
2023/08/16 08:29:45;;;;;;;7.78;6.93;;;;;;;26.28;60.65;64725.75;5069489;28;20248;-81
2023/08/16 08:32:11;;;;;;;9.65;7.50;;;;;;;26.32;58.39;64732.53;5070675;28;20211;-79
2023/08/16 08:34:40;;;;;;;7.95;7.20;;;;;;;26.14;58.38;64711.56;5072714;28;20269;-80
2023/08/16 08:37:08;;;;;;;8.55;7.50;;;;;;;26.15;58.58;64709.50;5081959;28;20234;-79
2023/08/16 08:39:36;;;;;;;7.15;6.53;;;;;;;26.46;58.87;64741.47;5089883;28;20220;-80
2023/08/16 08:42:04;;;;;;;9.10;7.40;;;;;;;26.54;57.06;64752.47;5083019;28;20247;-80
2023/08/16 08:44:33;;;;;;;8.88;7.85;;;;;;;26.45;57.49;64740.97;5070176;28;20252;-80
2023/08/16 08:47:05;;;;;;;10.57;7.07;;;;;;;26.41;58.60;64741.97;5084624;28;20207;-78
2023/08/16 08:49:34;;;;;;;11.00;7.53;;;;;;;26.12;57.23;64709.50;5076819;28;20243;-80
2023/08/16 08:52:02;;;;;;;9.32;7.32;;;;;;;26.15;59.44;64710.03;5070541;28;20220;-81
2023/08/16 08:54:32;;;;;;;9.15;7.90;;;;;;;26.35;60.03;64729.94;5072188;28;20220;-81
2023/08/16 08:56:59;;;;;;;10.15;7.22;;;;;;;26.79;59.07;64779.25;5083182;28;20228;-82
2023/08/16 08:59:28;;;;;;;8.70;7.07;;;;;;;27.37;57.08;64834.34;5070757;28;20416;-81
2023/08/16 09:01:56;;;;;;;12.13;7.70;;;;;;;27.21;55.02;64820.66;5070263;28;20494;-80
2023/08/16 09:04:24;;;;;;;11.10;7.55;;;;;;;27.51;55.36;64854.25;5069076;28;20224;-81
2023/08/16 09:06:51;;;;;;;9.32;8.05;;;;;;;27.41;54.17;64838.00;5067701;28;20385;-79
2023/08/16 09:09:19;;;;;;;8.85;7.15;;;;;;;27.28;55.44;64833.25;5079691;28;20276;-80
2023/08/16 09:11:47;;;;;;;12.90;8.45;;;;;;;27.29;54.13;64828.56;5073444;28;20211;-79
2023/08/16 09:14:15;;;;;;;9.68;7.57;;;;;;;27.34;53.34;64833.31;5069161;28;20452;-78
2023/08/16 09:16:42;;;;;;;9.15;8.15;;;;;;;27.09;54.64;64810.69;5068519;28;20287;-82
2023/08/16 09:19:15;;;;;;;10.38;7.60;;;;;;;27.60;53.21;64861.09;5066618;28;20219;-82
2023/08/16 09:21:44;;;;;;;8.88;7.20;;;;;;;28.31;51.41;64935.13;5087790;28;20291;-80
2023/08/16 09:24:11;;;;;;;8.65;7.80;;;;;;;28.19;50.30;64923.06;5072800;28;20224;-79
2023/08/16 09:26:38;;;;;;;9.93;7.68;;;;;;;27.59;52.28;64856.91;5069485;28;20252;-80
2023/08/16 09:29:08;;;;;;;10.90;8.63;;;;;;;27.65;54.31;64874.19;5083585;28;20546;-82
2023/08/16 09:31:40;;;;;;;8.88;7.90;;;;;;;28.04;53.57;64902.06;5067278;28;20208;-79
2023/08/16 09:34:07;;;;;;;12.98;8.32;;;;;;;28.45;52.74;64949.81;5069777;28;20220;-81
2023/08/16 09:36:36;;;;;;;8.52;7.72;;;;;;;29.12;52.74;65022.31;5064897;28;20204;-80
2023/08/16 09:39:04;;;;;;;9.05;7.57;;;;;;;29.18;50.04;65023.41;5068835;28;20232;-80
2023/08/16 09:41:32;;;;;;;8.15;7.30;;;;;;;28.99;49.46;65009.16;5074241;28;20227;-81
2023/08/16 09:44:09;;;;;;;7.88;7.18;;;;;;;28.78;49.26;64989.75;5075162;28;20549;-80
2023/08/16 09:46:39;;;;;;;8.15;7.43;;;;;;;28.91;48.38;65003.41;5071333;28;20204;-78
2023/08/16 09:49:07;;;;;;;9.60;7.50;;;;;;;28.67;49.32;64972.94;5070996;28;20236;-80
2023/08/16 09:51:36;;;;;;;9.65;7.35;;;;;;;28.44;49.84;64946.66;5083787;28;20355;-80
2023/08/16 09:54:11;;;;;;;7.82;7.13;;;;;;;28.56;49.13;64961.38;5073815;28;20248;-80
2023/08/16 09:56:40;;;;;;;8.88;6.50;;;;;;;28.40;49.33;64947.72;5074415;28;20199;-81
2023/08/16 09:59:11;;;;;;;7.30;6.60;;;;;;;28.28;49.29;64935.13;5089323;28;20574;-80
2023/08/16 10:01:41;;;;;;;7.40;6.70;;;;;;;28.22;49.27;64928.28;5083115;28;20212;-79
2023/08/16 10:04:09;;;;;;;10.55;7.72;;;;;;;27.95;48.31;64897.84;5077767;28;20235;-79
2023/08/16 10:06:36;;;;;;;7.40;6.68;;;;;;;27.93;50.07;64901.00;5075877;28;20216;-80
2023/08/16 10:09:04;;;;;;;7.72;7.03;;;;;;;27.96;49.78;64903.59;5075524;28;20240;-80
2023/08/16 10:11:33;;;;;;;15.73;7.65;;;;;;;27.95;49.47;64902.56;5071232;28;20204;-78
2023/08/16 10:14:03;;;;;;;7.95;7.25;;;;;;;27.93;49.10;64895.75;5072396;28;20215;-81
2023/08/16 10:16:35;;;;;;;7.43;6.85;;;;;;;27.71;50.03;64870.03;5078755;28;20260;-79
2023/08/16 10:19:04;;;;;;;11.07;7.00;;;;;;;27.22;50.36;64824.34;5082783;28;20234;-80
2023/08/16 10:21:34;;;;;;;10.77;7.32;;;;;;;27.60;50.84;64860.56;5083882;28;20204;-81
2023/08/16 10:24:02;;;;;;;9.43;6.72;;;;;;;27.77;51.12;64878.41;5068023;28;20264;-80
2023/08/16 10:26:33;;;;;;;8.20;7.13;;;;;;;27.97;51.17;64905.19;5072777;28;20547;-82
2023/08/16 10:29:10;;;;;;;7.50;6.80;;;;;;;28.25;50.70;64926.22;5077051;28;20218;-81
2023/08/16 10:31:45;;;;;;;7.10;6.40;;;;;;;28.16;50.80;64919.88;5081527;28;20443;-80
2023/08/16 10:34:17;;;;;;;7.82;7.15;;;;;;;28.25;50.02;64931.97;5071866;28;20263;-80
2023/08/16 10:36:45;;;;;;;8.32;7.50;;;;;;;28.24;49.68;64927.78;5082579;28;20200;-80
2023/08/16 10:39:21;;;;;;;7.68;6.80;;;;;;;28.28;50.25;64932.50;5076006;28;20243;-81
2023/08/16 10:41:50;;;;;;;8.48;6.90;;;;;;;28.51;48.42;64956.13;5073962;28;20227;-81
2023/08/16 10:44:23;;;;;;;7.35;6.70;;;;;;;28.38;48.51;64947.72;5080667;28;20219;-83
2023/08/16 10:46:53;;;;;;;7.18;6.55;;;;;;;28.41;49.45;64943.53;5072112;28;20197;-80
2023/08/16 10:49:21;;;;;;;7.63;6.85;;;;;;;28.24;49.17;64930.91;5076747;28;20284;-80
2023/08/16 10:51:51;;;;;;;6.88;6.20;;;;;;;28.18;48.77;64927.22;5076341;28;20204;-81
2023/08/16 10:54:19;;;;;;;7.45;6.93;;;;;;;28.42;49.34;64947.19;5081522;28;20231;-83
2023/08/16 10:56:48;;;;;;;7.30;6.68;;;;;;;28.48;49.44;64958.22;5074162;28;20239;-79
2023/08/16 10:59:20;;;;;;;11.30;6.75;;;;;;;28.63;48.26;64968.72;5082452;28;20273;-80
2023/08/16 11:01:47;;;;;;;7.10;6.50;;;;;;;28.68;48.23;64979.25;5075288;28;20200;-81
2023/08/16 11:04:16;;;;;;;7.90;7.10;;;;;;;28.73;49.82;64984.50;5071926;28;20220;-81
2023/08/16 11:06:46;;;;;;;7.60;6.93;;;;;;;28.85;46.18;64986.09;5071043;28;20200;-81
2023/08/16 11:09:13;;;;;;;8.18;7.38;;;;;;;28.98;47.76;65007.59;5073027;28;20223;-80
2023/08/16 11:11:46;;;;;;;7.85;7.05;;;;;;;28.59;47.47;64966.63;5091153;28;20263;-81
2023/08/16 11:14:14;;;;;;;7.97;7.13;;;;;;;28.88;48.37;64994.47;5060612;28;20221;-81
2023/08/16 11:16:41;;;;;;;7.05;6.35;;;;;;;29.14;49.05;65022.34;5086315;28;20223;-81
2023/08/16 11:19:08;;;;;;;7.40;6.45;;;;;;;29.31;47.74;65042.28;5076996;28;20419;-81
2023/08/16 11:21:38;;;;;;;8.10;6.78;;;;;;;29.50;47.19;65062.78;5071648;28;20205;-82
2023/08/16 11:24:10;;;;;;;8.02;7.05;;;;;;;29.81;46.34;65091.69;5068455;28;20217;-83
2023/08/16 11:26:39;;;;;;;8.05;7.22;;;;;;;29.62;45.23;65074.88;5073142;28;20268;-79